createdAt,value
2023-01-28T00:00:04.107Z,72.25
2023-01-28T00:02:10.033Z,72.45
2023-01-28T00:04:13.448Z,72.43
2023-01-28T00:06:17.699Z,72.86
2023-01-28T00:08:21.082Z,73.15
2023-01-28T00:10:24.582Z,72.75
2023-01-28T00:12:29.679Z,73.05
2023-01-28T00:14:33.242Z,72.43
2023-01-28T00:16:36.604Z,73.28
2023-01-28T00:18:41.578Z,72.50
2023-01-28T00:20:45.225Z,72.45
2023-01-28T00:22:51.772Z,73.24
2023-01-28T00:24:55.477Z,72.87
2023-01-28T00:26:58.860Z,73.15
2023-01-28T00:29:02.418Z,73.20
2023-01-28T00:31:09.901Z,73.10
2023-01-28T00:33:13.383Z,72.85
2023-01-28T00:35:22.791Z,72.75
2023-01-28T00:37:26.172Z,73.35
2023-01-28T00:39:29.683Z,73.12
2023-01-28T00:41:33.967Z,73.16
2023-01-28T00:43:37.610Z,73.03
2023-01-28T00:45:41.065Z,73.09
2023-01-28T00:47:45.198Z,73.35
2023-01-28T00:49:48.590Z,73.60
2023-01-28T00:51:53.443Z,73.59
2023-01-28T00:53:56.901Z,72.89
2023-01-28T00:56:00.543Z,73.35
2023-01-28T00:58:03.931Z,72.94
2023-01-28T01:00:09.042Z,73.01
2023-01-28T01:02:15.580Z,73.93
2023-01-28T01:04:26.905Z,73.10
2023-01-28T01:06:32.494Z,73.24
2023-01-28T01:08:40.016Z,73.61
2023-01-28T01:10:43.700Z,73.17
2023-01-28T01:12:47.755Z,72.82
2023-01-28T01:14:51.077Z,73.19
2023-01-28T01:16:54.498Z,73.55
2023-01-28T01:18:59.270Z,73.60
2023-01-28T01:21:03.669Z,73.25
2023-01-28T01:23:07.107Z,72.96
2023-01-28T01:25:14.143Z,73.45
2023-01-28T01:27:17.690Z,73.50
2023-01-28T01:29:21.147Z,73.67
2023-01-28T01:31:25.008Z,73.72
2023-01-28T01:33:30.559Z,72.94
2023-01-28T01:35:34.771Z,73.48
2023-01-28T01:37:38.467Z,73.39
2023-01-28T01:39:41.805Z,74.03
2023-01-28T01:41:46.729Z,73.26
2023-01-28T01:43:51.699Z,73.73
2023-01-28T01:45:59.774Z,74.00
2023-01-28T01:48:07.186Z,73.98
2023-01-28T01:50:19.686Z,73.81
2023-01-28T01:52:29.400Z,74.86
2023-01-28T01:54:35.002Z,74.17
2023-01-28T01:56:44.457Z,74.31
2023-01-28T01:58:54.537Z,73.84
2023-01-28T02:00:58.623Z,74.62
2023-01-28T02:03:02.986Z,74.59
2023-01-28T02:05:07.137Z,74.97
2023-01-28T02:07:13.707Z,74.58
2023-01-28T02:09:25.378Z,74.48
2023-01-28T02:11:31.652Z,74.45
2023-01-28T02:13:39.401Z,74.60
2023-01-28T02:15:46.051Z,74.93
2023-01-28T02:17:51.679Z,75.05
2023-01-28T02:19:59.002Z,74.25
2023-01-28T02:22:21.068Z,74.89
2023-01-28T02:24:50.751Z,75.31
2023-01-28T02:27:08.563Z,75.17
2023-01-28T02:29:18.171Z,74.69
2023-01-28T02:31:26.882Z,75.27
2023-01-28T02:33:36.879Z,75.74
2023-01-28T02:35:47.537Z,75.53
2023-01-28T02:37:56.496Z,75.32
2023-01-28T02:40:05.492Z,75.97
2023-01-28T02:42:13.592Z,76.14
2023-01-28T02:44:18.666Z,76.54
2023-01-28T02:46:51.553Z,76.75
2023-01-28T02:48:55.238Z,76.59
2023-01-28T02:51:06.096Z,76.33
2023-01-28T02:53:36.995Z,76.52
2023-01-28T02:55:46.427Z,77.05
2023-01-28T02:58:01.669Z,76.77
2023-01-28T03:00:13.139Z,76.92
2023-01-28T03:02:22.816Z,77.61
2023-01-28T03:04:32.499Z,76.89
2023-01-28T03:06:42.482Z,77.66
2023-01-28T03:09:06.630Z,77.08
2023-01-28T03:11:27.665Z,76.94
2023-01-28T03:13:48.902Z,77.38
2023-01-28T03:16:11.395Z,77.09
2023-01-28T03:18:36.618Z,77.76
2023-01-28T03:21:13.411Z,77.53
2023-01-28T03:23:40.660Z,77.81
2023-01-28T03:26:06.360Z,77.69
2023-01-28T03:28:31.191Z,77.41
2023-01-28T03:30:58.831Z,77.62
2023-01-28T03:33:34.852Z,77.42
2023-01-28T03:35:58.697Z,77.82
2023-01-28T03:38:17.992Z,77.94
2023-01-28T03:40:21.886Z,77.39
2023-01-28T03:42:25.279Z,77.20
2023-01-28T03:44:50.336Z,76.90
2023-01-28T03:46:54.315Z,77.35
2023-01-28T03:48:59.178Z,77.39
2023-01-28T03:51:02.981Z,76.91
2023-01-28T03:53:16.374Z,77.86
2023-01-28T03:55:27.611Z,77.88
2023-01-28T03:57:32.397Z,76.59
2023-01-28T03:59:35.874Z,77.60
2023-01-28T04:01:39.435Z,76.71
2023-01-28T04:03:42.942Z,76.33
2023-01-28T04:06:01.433Z,77.00
2023-01-28T04:08:18.696Z,76.49
2023-01-28T04:10:34.074Z,76.80
2023-01-28T04:13:00.802Z,76.18
2023-01-28T04:15:16.466Z,75.76
2023-01-28T04:17:23.252Z,76.47
2023-01-28T04:19:27.438Z,75.89
2023-01-28T04:21:33.823Z,75.34
2023-01-28T04:23:39.130Z,75.92
2023-01-28T04:25:43.808Z,76.01
2023-01-28T04:27:47.714Z,76.03
2023-01-28T04:29:55.243Z,75.41
2023-01-28T04:32:13.224Z,75.22
2023-01-28T04:34:36.649Z,75.47
2023-01-28T04:36:56.610Z,74.99
2023-01-28T04:39:00.059Z,74.95
2023-01-28T04:41:23.312Z,75.56
2023-01-28T04:43:27.172Z,74.03
2023-01-28T04:45:49.800Z,74.62
2023-01-28T04:48:17.396Z,74.39
2023-01-28T04:50:28.016Z,74.30
2023-01-28T04:52:45.383Z,74.44
2023-01-28T04:55:05.123Z,74.34
2023-01-28T04:57:08.703Z,73.90
2023-01-28T04:59:12.717Z,74.38
2023-01-28T05:01:16.274Z,74.28
2023-01-28T05:03:19.838Z,74.21
2023-01-28T05:05:23.416Z,74.00
2023-01-28T05:07:33.633Z,74.24
2023-01-28T05:09:38.530Z,74.18
2023-01-28T05:11:42.534Z,74.09
2023-01-28T05:13:46.067Z,74.26
2023-01-28T05:15:54.600Z,74.07
2023-01-28T05:17:58.482Z,73.49
2023-01-28T05:20:04.517Z,74.40
2023-01-28T05:22:08.084Z,74.69
2023-01-28T05:24:19.152Z,74.09
2023-01-28T05:26:24.018Z,74.99
2023-01-28T05:28:27.478Z,74.38
2023-01-28T05:30:30.945Z,74.01
2023-01-28T05:32:34.633Z,74.61
2023-01-28T05:34:38.083Z,74.11
2023-01-28T05:36:47.326Z,74.02
2023-01-28T05:39:12.201Z,74.52
2023-01-28T05:41:15.610Z,74.20
2023-01-28T05:43:22.335Z,73.16
2023-01-28T05:45:39.565Z,74.54
2023-01-28T05:47:48.116Z,73.71
2023-01-28T05:50:15.267Z,73.41
2023-01-28T05:52:45.120Z,73.78
2023-01-28T05:54:57.168Z,74.00
2023-01-28T05:57:01.051Z,73.13
2023-01-28T05:59:07.368Z,73.49
2023-01-28T06:01:12.319Z,73.25
2023-01-28T06:03:26.118Z,73.37
2023-01-28T06:05:29.740Z,72.95
2023-01-28T06:07:33.408Z,72.59
2023-01-28T06:09:36.893Z,72.51
2023-01-28T06:11:40.326Z,72.56
2023-01-28T06:13:44.164Z,72.95
2023-01-28T06:16:09.848Z,72.39
2023-01-28T06:18:18.744Z,72.17
2023-01-28T06:20:22.306Z,71.90
2023-01-28T06:22:27.680Z,71.74
2023-01-28T06:24:31.126Z,72.28
2023-01-28T06:26:34.561Z,72.55
2023-01-28T06:28:37.964Z,72.03
2023-01-28T06:30:41.524Z,71.96
2023-01-28T06:32:46.321Z,71.38
2023-01-28T06:34:49.825Z,71.54
2023-01-28T06:36:53.517Z,72.03
2023-01-28T06:38:57.291Z,71.46
2023-01-28T06:41:00.733Z,71.60
2023-01-28T06:43:04.279Z,70.76
2023-01-28T06:45:08.636Z,70.35
2023-01-28T06:47:12.192Z,71.19
2023-01-28T06:49:17.267Z,70.57
2023-01-28T06:51:21.188Z,70.76
2023-01-28T06:53:24.829Z,70.83
2023-01-28T06:55:28.292Z,71.45
2023-01-28T06:57:31.671Z,71.13
2023-01-28T06:59:35.438Z,70.83
2023-01-28T07:01:38.925Z,70.01
2023-01-28T07:03:42.421Z,70.78
2023-01-28T07:05:47.451Z,70.53
2023-01-28T07:07:51.658Z,70.05
2023-01-28T07:09:55.137Z,69.96
2023-01-28T07:11:58.541Z,69.78
2023-01-28T07:14:02.003Z,70.08
2023-01-28T07:16:06.035Z,70.21
2023-01-28T07:18:09.547Z,70.01
2023-01-28T07:20:15.819Z,69.92
2023-01-28T07:22:21.003Z,69.52
2023-01-28T07:24:24.550Z,69.78
2023-01-28T07:26:28.065Z,70.38
2023-01-28T07:28:31.617Z,69.51
2023-01-28T07:30:35.077Z,69.38
2023-01-28T07:32:38.576Z,68.60
2023-01-28T07:34:43.162Z,68.46
2023-01-28T07:36:46.659Z,68.58
2023-01-28T07:38:51.408Z,68.63
2023-01-28T07:40:55.124Z,68.94
2023-01-28T07:42:58.547Z,68.34
2023-01-28T07:45:05.203Z,69.26
2023-01-28T07:47:08.761Z,67.59
2023-01-28T07:49:12.301Z,67.97
2023-01-28T07:51:15.750Z,68.25
2023-01-28T07:53:20.064Z,67.29
2023-01-28T07:55:25.026Z,67.88
2023-01-28T07:57:30.219Z,68.12
2023-01-28T07:59:33.997Z,67.20
2023-01-28T08:01:37.427Z,67.40
2023-01-28T08:03:41.223Z,67.52
2023-01-28T08:05:48.011Z,67.53
2023-01-28T08:07:51.762Z,84.91
2023-01-28T08:09:55.317Z,75.23
2023-01-28T08:12:00.159Z,73.42
2023-01-28T08:14:03.659Z,72.08
2023-01-28T08:16:07.783Z,71.85
2023-01-28T08:18:13.631Z,71.26
2023-01-28T08:20:18.103Z,70.99
2023-01-28T08:22:26.592Z,70.35
2023-01-28T08:24:29.993Z,69.98
2023-01-28T08:26:33.442Z,70.02
2023-01-28T08:28:38.340Z,69.53
2023-01-28T08:30:42.317Z,69.42
2023-01-28T08:32:46.034Z,69.14
2023-01-28T08:34:49.497Z,69.32
2023-01-28T08:36:52.869Z,69.50
2023-01-28T08:38:56.479Z,68.91
2023-01-28T08:41:00.087Z,68.42
2023-01-28T08:43:03.954Z,68.38
2023-01-28T08:45:10.528Z,68.34
2023-01-28T08:47:13.958Z,67.08
2023-01-28T08:49:17.425Z,67.13
2023-01-28T08:51:20.896Z,67.98
2023-01-28T08:53:24.270Z,67.71
2023-01-28T08:55:28.688Z,67.24
2023-01-28T08:57:32.191Z,67.14
2023-01-28T08:59:35.609Z,66.50
2023-01-28T09:01:40.470Z,66.28
2023-01-28T09:03:43.965Z,66.82
2023-01-28T09:05:49.572Z,66.45
2023-01-28T09:07:53.086Z,65.66
2023-01-28T09:09:56.562Z,66.23
2023-01-28T09:12:00.057Z,65.60
2023-01-28T09:14:03.506Z,65.59
2023-01-28T09:16:07.792Z,65.63
2023-01-28T09:18:12.830Z,65.78
2023-01-28T09:20:17.304Z,65.40
2023-01-28T09:22:21.099Z,65.78
2023-01-28T09:24:24.795Z,64.71
2023-01-28T09:26:28.515Z,64.89
2023-01-28T09:28:32.376Z,65.06
2023-01-28T09:30:37.811Z,64.52
2023-01-28T09:32:41.708Z,65.02
2023-01-28T09:34:46.723Z,65.07
2023-01-28T09:36:50.326Z,63.99
2023-01-28T09:38:54.082Z,64.30
2023-01-28T09:40:58.571Z,64.96
2023-01-28T09:43:27.641Z,65.08
2023-01-28T09:45:37.778Z,65.16
2023-01-28T09:47:45.487Z,65.09
2023-01-28T09:49:54.279Z,65.02
2023-01-28T09:51:58.374Z,65.06
2023-01-28T09:54:05.913Z,65.22
2023-01-28T09:56:15.454Z,65.97
2023-01-28T09:58:19.619Z,65.85
2023-01-28T10:00:25.866Z,66.45
2023-01-28T10:02:43.582Z,65.41
2023-01-28T10:05:00.013Z,65.10
2023-01-28T10:07:20.109Z,65.67
2023-01-28T10:09:35.486Z,65.41
2023-01-28T10:11:52.737Z,65.33
2023-01-28T10:14:02.436Z,64.33
2023-01-28T10:16:15.480Z,65.26
2023-01-28T10:18:30.695Z,64.89
2023-01-28T10:20:41.780Z,64.28
2023-01-28T10:22:50.308Z,64.51
2023-01-28T10:24:58.422Z,63.96
2023-01-28T10:27:03.896Z,64.19
2023-01-28T10:29:16.254Z,64.19
2023-01-28T10:31:21.588Z,63.37
2023-01-28T10:33:32.072Z,63.83
2023-01-28T10:35:40.231Z,63.48
2023-01-28T10:37:43.833Z,63.81
2023-01-28T10:39:47.719Z,63.60
2023-01-28T10:41:58.353Z,63.58
2023-01-28T10:44:02.292Z,63.39
2023-01-28T10:46:10.798Z,63.89
2023-01-28T10:48:22.543Z,63.60
2023-01-28T10:50:29.720Z,63.32
2023-01-28T10:52:35.403Z,62.31
2023-01-28T10:54:38.924Z,63.42
2023-01-28T10:56:45.186Z,63.13
2023-01-28T10:59:01.759Z,63.11
2023-01-28T11:01:08.567Z,62.37
2023-01-28T11:03:19.563Z,63.21
2023-01-28T11:05:27.197Z,62.29
2023-01-28T11:07:30.851Z,62.47
2023-01-28T11:09:37.890Z,61.82
2023-01-28T11:11:41.460Z,62.28
2023-01-28T11:13:51.896Z,62.26
2023-01-28T11:16:00.330Z,61.99
2023-01-28T11:18:09.706Z,62.41
2023-01-28T11:20:22.265Z,62.52
2023-01-28T11:22:33.667Z,62.41
2023-01-28T11:24:38.779Z,62.94
2023-01-28T11:26:49.634Z,63.29
2023-01-28T11:28:54.545Z,62.29
2023-01-28T11:31:01.718Z,62.16
2023-01-28T11:33:15.485Z,61.86
2023-01-28T11:35:28.804Z,62.16
2023-01-28T11:37:32.324Z,62.57
2023-01-28T11:39:36.116Z,61.64
2023-01-28T11:41:41.113Z,61.44
2023-01-28T11:43:46.324Z,61.60
2023-01-28T11:46:04.816Z,62.05
2023-01-28T11:48:23.131Z,62.18
2023-01-28T11:50:37.272Z,62.38
2023-01-28T11:53:06.901Z,62.48
2023-01-28T11:55:24.405Z,61.99
2023-01-28T11:57:38.403Z,61.32
2023-01-28T12:00:09.285Z,61.84
2023-01-28T12:02:29.125Z,63.00
2023-01-28T12:04:54.398Z,62.61
2023-01-28T12:07:16.185Z,62.60
2023-01-28T12:09:29.694Z,62.55
2023-01-28T12:12:04.628Z,62.42
2023-01-28T12:14:17.561Z,62.10
2023-01-28T12:16:43.806Z,61.76
2023-01-28T12:19:25.004Z,61.50
2023-01-28T12:21:43.100Z,62.13
2023-01-28T12:24:01.112Z,61.39
2023-01-28T12:26:11.767Z,61.28
2023-01-28T12:28:23.425Z,61.19
2023-01-28T12:30:44.101Z,61.49
2023-01-28T12:32:59.849Z,61.30
2023-01-28T12:35:23.873Z,61.35
2023-01-28T12:37:36.836Z,61.24
2023-01-28T12:39:54.918Z,61.91
2023-01-28T12:42:08.724Z,61.39
2023-01-28T12:44:19.758Z,61.87
2023-01-28T12:46:47.799Z,62.16
2023-01-28T12:48:55.783Z,62.25
2023-01-28T12:51:05.164Z,61.52
2023-01-28T12:53:21.273Z,62.24
2023-01-28T12:55:38.901Z,61.64
2023-01-28T12:57:43.081Z,61.45
2023-01-28T12:59:51.158Z,62.07
2023-01-28T13:02:07.078Z,61.82
2023-01-28T13:04:17.356Z,61.68
2023-01-28T13:06:28.750Z,61.81
2023-01-28T13:08:32.390Z,61.80
2023-01-28T13:10:39.900Z,61.26
2023-01-28T13:12:43.994Z,61.42
2023-01-28T13:14:48.988Z,61.54
2023-01-28T13:16:52.562Z,62.03
2023-01-28T13:19:06.906Z,61.43
2023-01-28T13:21:15.884Z,61.98
2023-01-28T13:23:25.870Z,61.75
2023-01-28T13:25:29.408Z,61.21
2023-01-28T13:27:33.061Z,61.51
2023-01-28T13:29:36.495Z,59.97
2023-01-28T13:31:42.757Z,59.43
2023-01-28T13:34:04.177Z,58.15
2023-01-28T13:36:25.676Z,58.02
2023-01-28T13:38:30.010Z,57.12
2023-01-28T13:40:34.414Z,57.22
2023-01-28T13:42:38.038Z,57.42
2023-01-28T13:44:41.511Z,63.13
2023-01-28T13:46:45.042Z,60.46
2023-01-28T13:48:54.589Z,57.79
2023-01-28T13:51:01.124Z,57.95
2023-01-28T13:53:08.597Z,58.68
2023-01-28T13:55:33.679Z,58.26
2023-01-28T13:58:20.015Z,57.23
2023-01-28T14:00:30.359Z,57.08
2023-01-28T14:02:53.059Z,56.52
2023-01-28T14:05:39.509Z,56.52
2023-01-28T14:08:27.707Z,55.44
2023-01-28T14:10:50.472Z,55.02
2023-01-28T14:13:13.879Z,55.28
2023-01-28T14:15:38.114Z,55.24
2023-01-28T14:17:45.659Z,55.70
2023-01-28T14:19:51.971Z,55.15
2023-01-28T14:21:55.798Z,55.55
2023-01-28T14:24:00.830Z,54.40
2023-01-28T14:26:17.929Z,55.52
2023-01-28T14:28:33.555Z,54.13
2023-01-28T14:30:48.719Z,53.82
2023-01-28T14:32:54.975Z,53.18
2023-01-28T14:35:02.037Z,53.28
2023-01-28T14:37:09.423Z,53.83
2023-01-28T14:39:17.860Z,54.86
2023-01-28T14:41:28.611Z,54.82
2023-01-28T14:43:32.804Z,54.72
2023-01-28T14:45:52.515Z,54.70
2023-01-28T14:48:14.719Z,54.27
2023-01-28T14:50:32.194Z,54.13
2023-01-28T14:52:51.105Z,53.49
2023-01-28T14:55:07.821Z,53.00
2023-01-28T14:57:28.471Z,53.36
2023-01-28T14:59:39.946Z,53.86
2023-01-28T15:01:47.044Z,54.35
2023-01-28T15:03:50.730Z,53.45
2023-01-28T15:06:05.239Z,54.78
2023-01-28T15:08:08.806Z,54.80
2023-01-28T15:10:18.902Z,53.85
2023-01-28T15:12:23.876Z,54.55
2023-01-28T15:14:30.361Z,54.42
2023-01-28T15:16:35.273Z,53.91
2023-01-28T15:18:43.248Z,53.93
2023-01-28T15:20:48.388Z,54.80
2023-01-28T15:22:53.851Z,54.46
2023-01-28T15:24:57.621Z,53.88
2023-01-28T15:27:01.668Z,53.77
2023-01-28T15:29:06.971Z,53.65
2023-01-28T15:31:21.207Z,53.56
2023-01-28T15:33:25.371Z,53.49
2023-01-28T15:35:29.139Z,53.29
2023-01-28T15:37:32.585Z,53.21
2023-01-28T15:39:36.208Z,53.87
2023-01-28T15:41:42.296Z,54.03
2023-01-28T15:43:49.570Z,53.98
2023-01-28T15:45:56.533Z,53.88
2023-01-28T15:48:08.895Z,53.67
2023-01-28T15:50:20.522Z,53.47
2023-01-28T15:52:34.452Z,53.83
2023-01-28T15:54:41.618Z,53.85
2023-01-28T15:56:45.070Z,54.29
2023-01-28T15:58:48.819Z,54.12
2023-01-28T16:01:05.525Z,54.18
2023-01-28T16:03:10.592Z,54.81
2023-01-28T16:05:27.992Z,54.69
2023-01-28T16:07:33.588Z,54.63
2023-01-28T16:09:38.188Z,54.88
2023-01-28T16:11:44.907Z,55.48
2023-01-28T16:13:48.908Z,55.69
2023-01-28T16:15:55.142Z,55.72
2023-01-28T16:18:00.413Z,56.84
2023-01-28T16:20:06.333Z,57.18
2023-01-28T16:22:20.930Z,56.54
2023-01-28T16:24:27.587Z,56.85
2023-01-28T16:26:33.458Z,56.87
2023-01-28T16:28:37.126Z,56.94
2023-01-28T16:30:43.219Z,56.95
2023-01-28T16:32:47.329Z,56.98
2023-01-28T16:34:52.505Z,56.99
2023-01-28T16:36:59.525Z,57.90
2023-01-28T16:39:03.162Z,57.64
2023-01-28T16:41:07.496Z,58.31
2023-01-28T16:43:12.646Z,58.71
2023-01-28T16:45:19.076Z,58.17
2023-01-28T16:47:23.803Z,59.30
2023-01-28T16:49:27.310Z,59.18
2023-01-28T16:51:32.868Z,59.34
2023-01-28T16:53:36.517Z,58.81
2023-01-28T16:55:40.180Z,59.48
2023-01-28T16:57:45.362Z,59.40
2023-01-28T16:59:48.870Z,59.35
2023-01-28T17:01:52.473Z,59.95
2023-01-28T17:03:56.643Z,60.20
2023-01-28T17:06:00.149Z,59.81
2023-01-28T17:08:05.071Z,60.52
2023-01-28T17:10:09.662Z,59.87
2023-01-28T17:12:13.071Z,60.02
2023-01-28T17:14:16.696Z,60.48
2023-01-28T17:16:20.393Z,60.59
2023-01-28T17:18:24.041Z,60.88
2023-01-28T17:20:27.714Z,60.12
2023-01-28T17:22:31.274Z,60.55
2023-01-28T17:24:36.218Z,60.75
2023-01-28T17:26:39.967Z,60.69
2023-01-28T17:28:44.204Z,61.24
2023-01-28T17:30:47.750Z,61.35
2023-01-28T17:32:51.320Z,60.96
2023-01-28T17:34:54.862Z,60.52
2023-01-28T17:36:58.387Z,61.04
2023-01-28T17:39:02.008Z,61.68
2023-01-28T17:41:08.458Z,61.21
2023-01-28T17:43:12.073Z,62.36
2023-01-28T17:45:17.298Z,61.89
2023-01-28T17:47:22.154Z,61.67
2023-01-28T17:49:26.008Z,62.71
2023-01-28T17:51:29.492Z,62.39
2023-01-28T17:53:33.212Z,61.57
2023-01-28T17:55:37.697Z,62.40
2023-01-28T17:57:45.068Z,62.60
2023-01-28T17:59:48.624Z,62.14
2023-01-28T18:01:54.669Z,62.05
2023-01-28T18:03:59.284Z,62.23
2023-01-28T18:06:04.247Z,62.57
2023-01-28T18:08:07.958Z,63.23
2023-01-28T18:10:12.470Z,63.10
2023-01-28T18:12:17.420Z,63.11
2023-01-28T18:14:22.305Z,62.85
2023-01-28T18:16:25.995Z,63.82
2023-01-28T18:18:29.710Z,63.81
2023-01-28T18:20:34.671Z,63.78
2023-01-28T18:22:38.349Z,63.68
2023-01-28T18:24:41.997Z,63.68
2023-01-28T18:26:45.658Z,64.22
2023-01-28T18:28:49.580Z,63.82
2023-01-28T18:30:55.469Z,64.28
2023-01-28T18:32:59.278Z,64.56
2023-01-28T18:35:03.142Z,64.11
2023-01-28T18:37:08.541Z,64.05
2023-01-28T18:39:13.753Z,63.95
2023-01-28T18:41:17.395Z,64.04
2023-01-28T18:43:20.975Z,64.58
2023-01-28T18:45:24.519Z,64.51
2023-01-28T18:47:29.685Z,64.73
2023-01-28T18:49:33.315Z,64.61
2023-01-28T18:51:37.222Z,65.02
2023-01-28T18:53:41.992Z,64.72
2023-01-28T18:55:46.180Z,64.83
2023-01-28T18:57:49.658Z,65.29
2023-01-28T18:59:53.286Z,64.73
2023-01-28T19:01:56.848Z,65.34
2023-01-28T19:04:02.393Z,65.15
2023-01-28T19:06:07.198Z,65.69
2023-01-28T19:08:10.875Z,65.53
2023-01-28T19:10:14.409Z,65.77
2023-01-28T19:12:17.928Z,65.39
2023-01-28T19:14:21.623Z,65.69
2023-01-28T19:16:25.897Z,66.12
2023-01-28T19:18:29.534Z,66.08
2023-01-28T19:20:34.351Z,66.14
2023-01-28T19:22:37.753Z,66.13
2023-01-28T19:24:41.179Z,65.86
2023-01-28T19:26:45.400Z,66.37
2023-01-28T19:28:49.585Z,66.39
2023-01-28T19:30:53.620Z,66.00
2023-01-28T19:32:57.197Z,66.36
2023-01-28T19:35:00.646Z,66.16
2023-01-28T19:37:05.607Z,66.58
2023-01-28T19:39:10.146Z,66.48
2023-01-28T19:41:16.202Z,66.27
2023-01-28T19:43:20.086Z,66.49
2023-01-28T19:45:23.506Z,66.64
2023-01-28T19:47:28.107Z,66.54
2023-01-28T19:49:31.589Z,67.02
2023-01-28T19:51:35.190Z,66.56
2023-01-28T19:53:41.062Z,66.57
2023-01-28T19:55:44.682Z,67.11
2023-01-28T19:57:49.932Z,67.18
2023-01-28T19:59:53.360Z,67.23
2023-01-28T20:01:56.845Z,67.32
2023-01-28T20:04:01.433Z,67.35
2023-01-28T20:06:06.958Z,67.31
2023-01-28T20:08:11.727Z,67.40
2023-01-28T20:10:16.664Z,67.26
2023-01-28T20:12:20.122Z,67.61
2023-01-28T20:14:23.501Z,67.56
2023-01-28T20:16:28.633Z,67.85
2023-01-28T20:18:32.058Z,67.48
2023-01-28T20:20:35.551Z,68.17
2023-01-28T20:22:39.389Z,67.93
2023-01-28T20:24:42.870Z,67.66
2023-01-28T20:26:47.734Z,67.99
2023-01-28T20:28:52.073Z,68.62
2023-01-28T20:30:56.263Z,68.78
2023-01-28T20:32:59.878Z,68.66
2023-01-28T20:35:03.254Z,68.73
2023-01-28T20:37:10.031Z,68.62
2023-01-28T20:39:14.167Z,68.47
2023-01-28T20:41:20.107Z,68.54
2023-01-28T20:43:24.950Z,68.60
2023-01-28T20:45:28.334Z,68.55
2023-01-28T20:47:32.019Z,68.86
2023-01-28T20:49:35.474Z,68.44
2023-01-28T20:51:39.263Z,68.62
2023-01-28T20:53:43.245Z,68.36
2023-01-28T20:55:56.736Z,68.50
2023-01-28T20:58:01.097Z,68.34
2023-01-28T21:00:07.788Z,68.56
2023-01-28T21:02:11.948Z,68.77
2023-01-28T21:04:17.120Z,68.58
2023-01-28T21:06:20.884Z,68.59
2023-01-28T21:08:24.452Z,69.00
2023-01-28T21:10:27.898Z,68.89
2023-01-28T21:12:31.351Z,68.81
2023-01-28T21:14:34.849Z,69.11
2023-01-28T21:16:42.284Z,69.13
2023-01-28T21:18:46.170Z,68.74
2023-01-28T21:20:49.621Z,68.80
2023-01-28T21:22:53.143Z,68.71
2023-01-28T21:24:56.661Z,68.85
2023-01-28T21:27:00.365Z,68.84
2023-01-28T21:29:03.864Z,68.97
2023-01-28T21:31:09.861Z,68.95
2023-01-28T21:33:14.707Z,69.11
2023-01-28T21:35:18.486Z,69.11
2023-01-28T21:37:22.538Z,68.71
2023-01-28T21:39:26.192Z,69.12
2023-01-28T21:41:29.728Z,69.31
2023-01-28T21:43:34.015Z,69.07
2023-01-28T21:45:37.395Z,69.33
2023-01-28T21:47:41.198Z,69.20
2023-01-28T21:49:45.989Z,69.63
2023-01-28T21:51:49.386Z,69.49
2023-01-28T21:53:52.833Z,69.42
2023-01-28T21:55:56.283Z,69.18
2023-01-28T21:58:19.662Z,69.29
2023-01-28T22:00:22.975Z,69.18
2023-01-28T22:02:26.495Z,69.40
2023-01-28T22:04:32.581Z,69.71
2023-01-28T22:06:37.450Z,69.59
2023-01-28T22:08:41.119Z,70.09
2023-01-28T22:10:44.712Z,69.61
2023-01-28T22:12:48.336Z,70.12
2023-01-28T22:14:51.779Z,69.62
2023-01-28T22:16:55.280Z,69.98
2023-01-28T22:18:58.676Z,69.93
2023-01-28T22:21:04.139Z,70.54
2023-01-28T22:23:09.022Z,70.33
2023-01-28T22:25:12.443Z,70.77
2023-01-28T22:27:15.854Z,71.02
2023-01-28T22:29:20.497Z,70.55
2023-01-28T22:31:24.081Z,70.73
2023-01-28T22:33:27.487Z,70.56
2023-01-28T22:35:31.160Z,70.63
2023-01-28T22:37:34.675Z,70.62
2023-01-28T22:39:39.450Z,71.10
2023-01-28T22:41:44.116Z,70.82
2023-01-28T22:43:48.134Z,70.99
2023-01-28T22:45:59.205Z,70.79
2023-01-28T22:48:02.785Z,70.70
2023-01-28T22:50:07.354Z,71.20
2023-01-28T22:52:10.773Z,71.03
2023-01-28T22:54:15.287Z,70.72
2023-01-28T22:56:22.691Z,70.86
2023-01-28T22:58:26.282Z,70.86
2023-01-28T23:00:30.639Z,70.77
2023-01-28T23:02:34.081Z,71.02
2023-01-28T23:04:37.461Z,70.70
2023-01-28T23:06:41.191Z,71.22
2023-01-28T23:08:45.559Z,71.01
2023-01-28T23:10:51.085Z,71.04
2023-01-28T23:12:56.101Z,71.07
2023-01-28T23:15:25.513Z,71.27
2023-01-28T23:17:46.662Z,71.98
2023-01-28T23:20:07.543Z,72.42
2023-01-28T23:22:32.195Z,72.18
2023-01-28T23:24:35.616Z,73.09
2023-01-28T23:26:39.079Z,72.42
2023-01-28T23:28:43.923Z,72.45
2023-01-28T23:30:47.426Z,72.87
2023-01-28T23:32:51.171Z,72.99
2023-01-28T23:34:54.848Z,73.21
2023-01-28T23:36:58.349Z,73.39
2023-01-28T23:39:01.803Z,73.09
2023-01-28T23:41:05.449Z,73.05
2023-01-28T23:43:08.856Z,73.24
2023-01-28T23:45:14.787Z,72.72
2023-01-28T23:47:19.226Z,73.16
2023-01-28T23:49:22.944Z,72.95
2023-01-28T23:51:26.614Z,73.44
2023-01-28T23:53:29.996Z,73.66
2023-01-28T23:55:33.371Z,73.79
2023-01-28T23:57:37.290Z,73.06
2023-01-28T23:59:40.683Z,73.34
